Terminal Aerodrome Forecast
Issued by NWS Omaha/Valley, NE

Home | Current Version | Previous Version | Text Only | Print | Product List | Glossary Off
Versions: 1 2 3 4 5 6 7 8 9 10 11 12 13 14 15 16 17

000
FTUS43 KOAX 231135 CCA
TAFOFK
TAF COR
KOFK 231135Z 2312/2412 28005KT 1/4SM FG VV002
      TEMPO 2314/2315 2SM BR SCT003
     FM231500 34011KT P6SM SKC
     FM231800 35012G20KT P6SM SKC
     FM232300 01008KT P6SM SKC=

USA.gov is the U.S. government's official web portal to all federal, state and local government web resources and services.